sensor_id;sensor_type;location;lat;lon;timestamp;P1;durP1;ratioP1;P2;durP2;ratioP2
50709;SDS011;37033;49.994;21.992;2023-01-15T00:00:36;10.20;;;6.70;;
50709;SDS011;37033;49.994;21.992;2023-01-15T00:03:46;9.70;;;5.30;;
50709;SDS011;37033;49.994;21.992;2023-01-15T00:06:36;11.80;;;5.90;;
50709;SDS011;37033;49.994;21.992;2023-01-15T00:09:27;11.40;;;6.40;;
50709;SDS011;37033;49.994;21.992;2023-01-15T00:12:17;11.90;;;6.10;;
50709;SDS011;37033;49.994;21.992;2023-01-15T00:15:08;11.20;;;5.70;;
50709;SDS011;37033;49.994;21.992;2023-01-15T00:17:58;12.30;;;6.20;;
50709;SDS011;37033;49.994;21.992;2023-01-15T00:20:49;9.20;;;6.60;;
50709;SDS011;37033;49.994;21.992;2023-01-15T00:23:47;11.20;;;6.20;;
50709;SDS011;37033;49.994;21.992;2023-01-15T00:26:56;10.50;;;6.00;;
50709;SDS011;37033;49.994;21.992;2023-01-15T00:30:05;10.20;;;6.40;;
50709;SDS011;37033;49.994;21.992;2023-01-15T00:32:57;11.10;;;5.60;;
50709;SDS011;37033;49.994;21.992;2023-01-15T00:35:48;10.00;;;5.70;;
50709;SDS011;37033;49.994;21.992;2023-01-15T00:38:38;10.50;;;5.70;;
50709;SDS011;37033;49.994;21.992;2023-01-15T00:41:28;11.10;;;6.10;;
50709;SDS011;37033;49.994;21.992;2023-01-15T00:44:18;9.30;;;5.70;;
50709;SDS011;37033;49.994;21.992;2023-01-15T00:47:09;11.20;;;6.20;;
50709;SDS011;37033;49.994;21.992;2023-01-15T00:50:00;14.50;;;5.40;;
50709;SDS011;37033;49.994;21.992;2023-01-15T00:52:51;8.60;;;5.40;;
50709;SDS011;37033;49.994;21.992;2023-01-15T00:55:41;7.50;;;5.20;;
50709;SDS011;37033;49.994;21.992;2023-01-15T00:58:31;8.00;;;5.10;;
50709;SDS011;37033;49.994;21.992;2023-01-15T01:01:21;9.70;;;5.90;;
50709;SDS011;37033;49.994;21.992;2023-01-15T01:04:11;8.30;;;5.60;;
50709;SDS011;37033;49.994;21.992;2023-01-15T01:07:01;9.30;;;5.90;;
50709;SDS011;37033;49.994;21.992;2023-01-15T01:09:50;11.90;;;6.50;;
50709;SDS011;37033;49.994;21.992;2023-01-15T01:12:40;9.20;;;5.80;;
50709;SDS011;37033;49.994;21.992;2023-01-15T01:15:31;9.00;;;5.30;;
50709;SDS011;37033;49.994;21.992;2023-01-15T01:18:21;9.00;;;6.20;;
50709;SDS011;37033;49.994;21.992;2023-01-15T01:21:11;10.10;;;5.70;;
50709;SDS011;37033;49.994;21.992;2023-01-15T01:24:01;11.90;;;6.10;;
50709;SDS011;37033;49.994;21.992;2023-01-15T01:26:52;12.20;;;6.30;;
50709;SDS011;37033;49.994;21.992;2023-01-15T01:29:43;12.20;;;6.70;;
50709;SDS011;37033;49.994;21.992;2023-01-15T01:32:33;10.70;;;6.40;;
50709;SDS011;37033;49.994;21.992;2023-01-15T01:35:23;9.30;;;5.10;;
50709;SDS011;37033;49.994;21.992;2023-01-15T01:38:13;11.80;;;6.70;;
50709;SDS011;37033;49.994;21.992;2023-01-15T01:41:02;10.70;;;6.20;;
50709;SDS011;37033;49.994;21.992;2023-01-15T01:43:53;9.30;;;6.30;;
50709;SDS011;37033;49.994;21.992;2023-01-15T01:46:45;9.40;;;6.00;;
50709;SDS011;37033;49.994;21.992;2023-01-15T01:49:35;9.00;;;5.70;;
50709;SDS011;37033;49.994;21.992;2023-01-15T01:52:28;11.70;;;6.20;;
50709;SDS011;37033;49.994;21.992;2023-01-15T01:55:21;8.80;;;5.30;;
50709;SDS011;37033;49.994;21.992;2023-01-15T01:58:13;10.50;;;6.60;;
50709;SDS011;37033;49.994;21.992;2023-01-15T02:01:04;11.50;;;6.00;;
50709;SDS011;37033;49.994;21.992;2023-01-15T02:03:54;9.40;;;5.50;;
50709;SDS011;37033;49.994;21.992;2023-01-15T02:06:45;8.60;;;5.80;;
50709;SDS011;37033;49.994;21.992;2023-01-15T02:09:35;12.20;;;5.90;;
50709;SDS011;37033;49.994;21.992;2023-01-15T02:12:25;7.60;;;5.00;;
50709;SDS011;37033;49.994;21.992;2023-01-15T02:15:24;12.30;;;6.20;;
50709;SDS011;37033;49.994;21.992;2023-01-15T02:18:18;7.60;;;5.30;;
50709;SDS011;37033;49.994;21.992;2023-01-15T02:21:16;9.90;;;6.00;;
50709;SDS011;37033;49.994;21.992;2023-01-15T02:24:11;11.90;;;6.20;;
50709;SDS011;37033;49.994;21.992;2023-01-15T02:27:09;12.40;;;6.30;;
50709;SDS011;37033;49.994;21.992;2023-01-15T02:30:02;12.20;;;7.70;;
50709;SDS011;37033;49.994;21.992;2023-01-15T02:33:01;11.30;;;6.00;;
50709;SDS011;37033;49.994;21.992;2023-01-15T02:38:48;9.70;;;5.90;;
50709;SDS011;37033;49.994;21.992;2023-01-15T02:41:43;10.80;;;6.50;;
50709;SDS011;37033;49.994;21.992;2023-01-15T02:44:38;10.00;;;6.20;;
50709;SDS011;37033;49.994;21.992;2023-01-15T02:47:32;12.30;;;6.80;;
50709;SDS011;37033;49.994;21.992;2023-01-15T02:50:26;10.30;;;6.00;;
50709;SDS011;37033;49.994;21.992;2023-01-15T02:53:22;12.70;;;6.80;;
50709;SDS011;37033;49.994;21.992;2023-01-15T02:56:16;11.90;;;5.70;;
50709;SDS011;37033;49.994;21.992;2023-01-15T02:59:12;12.20;;;6.90;;
50709;SDS011;37033;49.994;21.992;2023-01-15T03:02:06;11.00;;;6.00;;
50709;SDS011;37033;49.994;21.992;2023-01-15T03:05:01;11.00;;;6.80;;
50709;SDS011;37033;49.994;21.992;2023-01-15T03:07:55;11.50;;;6.60;;
50709;SDS011;37033;49.994;21.992;2023-01-15T03:10:47;9.90;;;6.10;;
50709;SDS011;37033;49.994;21.992;2023-01-15T03:13:45;9.60;;;6.20;;
50709;SDS011;37033;49.994;21.992;2023-01-15T03:16:40;11.60;;;5.80;;
50709;SDS011;37033;49.994;21.992;2023-01-15T03:19:36;10.80;;;6.40;;
50709;SDS011;37033;49.994;21.992;2023-01-15T03:22:31;14.80;;;7.50;;
50709;SDS011;37033;49.994;21.992;2023-01-15T03:25:26;9.80;;;6.50;;
50709;SDS011;37033;49.994;21.992;2023-01-15T03:28:22;12.60;;;6.10;;
50709;SDS011;37033;49.994;21.992;2023-01-15T03:31:15;9.70;;;5.30;;
50709;SDS011;37033;49.994;21.992;2023-01-15T03:34:05;10.30;;;5.60;;
50709;SDS011;37033;49.994;21.992;2023-01-15T03:36:57;12.30;;;5.70;;
50709;SDS011;37033;49.994;21.992;2023-01-15T03:39:47;7.50;;;4.50;;
50709;SDS011;37033;49.994;21.992;2023-01-15T03:42:41;8.70;;;4.80;;
50709;SDS011;37033;49.994;21.992;2023-01-15T03:45:57;13.10;;;5.40;;
50709;SDS011;37033;49.994;21.992;2023-01-15T03:48:56;8.00;;;5.10;;
50709;SDS011;37033;49.994;21.992;2023-01-15T03:51:55;7.20;;;4.90;;
50709;SDS011;37033;49.994;21.992;2023-01-15T03:54:51;6.40;;;3.90;;
50709;SDS011;37033;49.994;21.992;2023-01-15T03:57:55;8.60;;;4.40;;
50709;SDS011;37033;49.994;21.992;2023-01-15T04:00:47;7.80;;;4.30;;
50709;SDS011;37033;49.994;21.992;2023-01-15T04:03:39;7.70;;;4.80;;
50709;SDS011;37033;49.994;21.992;2023-01-15T04:06:35;5.30;;;4.10;;
50709;SDS011;37033;49.994;21.992;2023-01-15T04:09:27;7.10;;;4.50;;
50709;SDS011;37033;49.994;21.992;2023-01-15T04:12:17;8.40;;;4.50;;
50709;SDS011;37033;49.994;21.992;2023-01-15T04:15:09;7.40;;;4.60;;
50709;SDS011;37033;49.994;21.992;2023-01-15T04:17:59;9.00;;;4.90;;
50709;SDS011;37033;49.994;21.992;2023-01-15T04:20:49;7.50;;;4.50;;
50709;SDS011;37033;49.994;21.992;2023-01-15T04:23:40;7.70;;;4.60;;
50709;SDS011;37033;49.994;21.992;2023-01-15T04:26:30;9.90;;;4.10;;
50709;SDS011;37033;49.994;21.992;2023-01-15T04:29:19;6.10;;;4.20;;
50709;SDS011;37033;49.994;21.992;2023-01-15T04:32:09;7.10;;;4.20;;
50709;SDS011;37033;49.994;21.992;2023-01-15T04:34:59;6.60;;;4.30;;
50709;SDS011;37033;49.994;21.992;2023-01-15T04:37:48;8.00;;;4.50;;
50709;SDS011;37033;49.994;21.992;2023-01-15T04:40:43;7.10;;;4.10;;
50709;SDS011;37033;49.994;21.992;2023-01-15T04:43:51;7.60;;;5.30;;
50709;SDS011;37033;49.994;21.992;2023-01-15T04:46:56;9.40;;;5.20;;
50709;SDS011;37033;49.994;21.992;2023-01-15T04:49:47;6.50;;;4.30;;
50709;SDS011;37033;49.994;21.992;2023-01-15T04:52:37;6.40;;;4.50;;
50709;SDS011;37033;49.994;21.992;2023-01-15T04:55:27;7.60;;;3.90;;
50709;SDS011;37033;49.994;21.992;2023-01-15T04:58:18;7.10;;;3.90;;
50709;SDS011;37033;49.994;21.992;2023-01-15T05:01:10;9.90;;;5.20;;
50709;SDS011;37033;49.994;21.992;2023-01-15T05:04:01;9.20;;;5.20;;
50709;SDS011;37033;49.994;21.992;2023-01-15T05:06:52;7.10;;;3.90;;
50709;SDS011;37033;49.994;21.992;2023-01-15T05:09:42;8.00;;;4.20;;
50709;SDS011;37033;49.994;21.992;2023-01-15T05:12:34;8.40;;;4.80;;
50709;SDS011;37033;49.994;21.992;2023-01-15T05:15:24;9.60;;;4.50;;
50709;SDS011;37033;49.994;21.992;2023-01-15T05:18:14;7.30;;;4.70;;
50709;SDS011;37033;49.994;21.992;2023-01-15T05:21:04;7.30;;;5.00;;
50709;SDS011;37033;49.994;21.992;2023-01-15T05:24:00;6.20;;;4.50;;
50709;SDS011;37033;49.994;21.992;2023-01-15T05:26:52;5.90;;;3.90;;
50709;SDS011;37033;49.994;21.992;2023-01-15T05:29:43;8.20;;;4.70;;
50709;SDS011;37033;49.994;21.992;2023-01-15T05:32:33;10.90;;;5.00;;
50709;SDS011;37033;49.994;21.992;2023-01-15T05:35:23;7.00;;;4.00;;
50709;SDS011;37033;49.994;21.992;2023-01-15T05:38:13;8.00;;;4.40;;
50709;SDS011;37033;49.994;21.992;2023-01-15T05:41:04;7.20;;;4.40;;
50709;SDS011;37033;49.994;21.992;2023-01-15T05:44:16;6.10;;;4.10;;
50709;SDS011;37033;49.994;21.992;2023-01-15T05:47:08;6.80;;;4.20;;
50709;SDS011;37033;49.994;21.992;2023-01-15T05:49:58;6.70;;;4.30;;
50709;SDS011;37033;49.994;21.992;2023-01-15T05:52:48;7.20;;;4.50;;
50709;SDS011;37033;49.994;21.992;2023-01-15T05:55:37;7.70;;;4.70;;
50709;SDS011;37033;49.994;21.992;2023-01-15T05:58:28;6.90;;;5.00;;
50709;SDS011;37033;49.994;21.992;2023-01-15T06:01:18;7.10;;;4.80;;
50709;SDS011;37033;49.994;21.992;2023-01-15T06:04:09;8.70;;;4.80;;
50709;SDS011;37033;49.994;21.992;2023-01-15T06:07:00;8.50;;;4.50;;
50709;SDS011;37033;49.994;21.992;2023-01-15T06:09:50;9.00;;;5.10;;
50709;SDS011;37033;49.994;21.992;2023-01-15T06:12:42;10.80;;;5.80;;
50709;SDS011;37033;49.994;21.992;2023-01-15T06:15:33;6.90;;;4.70;;
50709;SDS011;37033;49.994;21.992;2023-01-15T06:18:23;9.70;;;5.30;;
50709;SDS011;37033;49.994;21.992;2023-01-15T06:21:13;8.40;;;5.10;;
50709;SDS011;37033;49.994;21.992;2023-01-15T06:24:04;7.70;;;5.40;;
50709;SDS011;37033;49.994;21.992;2023-01-15T06:26:55;9.10;;;4.80;;
50709;SDS011;37033;49.994;21.992;2023-01-15T06:29:45;9.30;;;4.90;;
50709;SDS011;37033;49.994;21.992;2023-01-15T06:32:35;7.00;;;5.00;;
50709;SDS011;37033;49.994;21.992;2023-01-15T06:35:25;11.10;;;5.20;;
50709;SDS011;37033;49.994;21.992;2023-01-15T06:38:15;8.40;;;5.20;;
50709;SDS011;37033;49.994;21.992;2023-01-15T06:41:05;9.60;;;5.60;;
50709;SDS011;37033;49.994;21.992;2023-01-15T06:44:13;8.80;;;5.70;;
50709;SDS011;37033;49.994;21.992;2023-01-15T06:47:22;9.10;;;5.00;;
50709;SDS011;37033;49.994;21.992;2023-01-15T06:50:12;7.90;;;5.40;;
50709;SDS011;37033;49.994;21.992;2023-01-15T06:53:03;11.40;;;5.80;;
50709;SDS011;37033;49.994;21.992;2023-01-15T06:55:53;10.80;;;5.50;;
50709;SDS011;37033;49.994;21.992;2023-01-15T06:58:43;9.30;;;5.70;;
50709;SDS011;37033;49.994;21.992;2023-01-15T07:01:33;7.80;;;5.20;;
50709;SDS011;37033;49.994;21.992;2023-01-15T07:04:23;8.90;;;5.90;;
50709;SDS011;37033;49.994;21.992;2023-01-15T07:07:13;8.80;;;5.60;;
50709;SDS011;37033;49.994;21.992;2023-01-15T07:10:04;9.40;;;5.40;;
50709;SDS011;37033;49.994;21.992;2023-01-15T07:12:55;9.70;;;5.80;;
50709;SDS011;37033;49.994;21.992;2023-01-15T07:15:45;9.30;;;6.20;;
50709;SDS011;37033;49.994;21.992;2023-01-15T07:18:35;8.80;;;5.60;;
50709;SDS011;37033;49.994;21.992;2023-01-15T07:21:24;10.90;;;6.80;;
50709;SDS011;37033;49.994;21.992;2023-01-15T07:24:15;13.30;;;6.80;;
50709;SDS011;37033;49.994;21.992;2023-01-15T07:27:06;10.30;;;5.60;;
50709;SDS011;37033;49.994;21.992;2023-01-15T07:29:55;9.50;;;5.80;;
50709;SDS011;37033;49.994;21.992;2023-01-15T07:32:45;10.50;;;5.60;;
50709;SDS011;37033;49.994;21.992;2023-01-15T07:35:35;9.00;;;6.00;;
50709;SDS011;37033;49.994;21.992;2023-01-15T07:38:25;6.80;;;5.00;;
50709;SDS011;37033;49.994;21.992;2023-01-15T07:41:16;9.30;;;5.50;;
50709;SDS011;37033;49.994;21.992;2023-01-15T07:44:35;8.50;;;5.40;;
50709;SDS011;37033;49.994;21.992;2023-01-15T07:47:43;9.40;;;5.90;;
50709;SDS011;37033;49.994;21.992;2023-01-15T07:50:51;7.60;;;5.10;;
50709;SDS011;37033;49.994;21.992;2023-01-15T07:53:41;9.10;;;5.10;;
50709;SDS011;37033;49.994;21.992;2023-01-15T07:56:31;16.20;;;8.60;;
50709;SDS011;37033;49.994;21.992;2023-01-15T07:59:21;8.30;;;5.10;;
50709;SDS011;37033;49.994;21.992;2023-01-15T08:02:11;8.40;;;6.00;;
50709;SDS011;37033;49.994;21.992;2023-01-15T08:05:02;6.40;;;4.40;;
50709;SDS011;37033;49.994;21.992;2023-01-15T08:07:52;6.70;;;4.50;;
50709;SDS011;37033;49.994;21.992;2023-01-15T08:10:42;8.20;;;5.30;;
50709;SDS011;37033;49.994;21.992;2023-01-15T08:13:46;9.70;;;5.40;;
50709;SDS011;37033;49.994;21.992;2023-01-15T08:16:54;9.00;;;4.90;;
50709;SDS011;37033;49.994;21.992;2023-01-15T08:19:44;7.80;;;4.90;;
50709;SDS011;37033;49.994;21.992;2023-01-15T08:22:34;10.40;;;4.40;;
50709;SDS011;37033;49.994;21.992;2023-01-15T08:25:24;8.50;;;4.40;;
50709;SDS011;37033;49.994;21.992;2023-01-15T08:28:14;8.50;;;5.30;;
50709;SDS011;37033;49.994;21.992;2023-01-15T08:31:05;8.50;;;4.80;;
50709;SDS011;37033;49.994;21.992;2023-01-15T08:33:55;10.10;;;5.90;;
50709;SDS011;37033;49.994;21.992;2023-01-15T08:36:45;7.80;;;5.40;;
50709;SDS011;37033;49.994;21.992;2023-01-15T08:39:35;11.30;;;6.90;;
50709;SDS011;37033;49.994;21.992;2023-01-15T08:42:25;11.50;;;6.70;;
50709;SDS011;37033;49.994;21.992;2023-01-15T08:45:15;18.60;;;7.80;;
50709;SDS011;37033;49.994;21.992;2023-01-15T08:48:05;12.70;;;6.40;;
50709;SDS011;37033;49.994;21.992;2023-01-15T08:50:55;9.40;;;5.60;;
50709;SDS011;37033;49.994;21.992;2023-01-15T08:53:45;10.10;;;5.00;;
50709;SDS011;37033;49.994;21.992;2023-01-15T08:56:35;9.20;;;5.60;;
50709;SDS011;37033;49.994;21.992;2023-01-15T08:59:24;10.30;;;5.20;;
50709;SDS011;37033;49.994;21.992;2023-01-15T09:02:14;11.00;;;5.90;;
50709;SDS011;37033;49.994;21.992;2023-01-15T09:05:05;7.40;;;4.60;;
50709;SDS011;37033;49.994;21.992;2023-01-15T09:07:55;9.70;;;4.80;;
50709;SDS011;37033;49.994;21.992;2023-01-15T09:10:46;8.50;;;4.50;;
50709;SDS011;37033;49.994;21.992;2023-01-15T09:13:36;8.80;;;4.70;;
50709;SDS011;37033;49.994;21.992;2023-01-15T09:16:26;6.80;;;4.80;;
50709;SDS011;37033;49.994;21.992;2023-01-15T09:19:17;7.70;;;4.80;;
50709;SDS011;37033;49.994;21.992;2023-01-15T09:22:07;13.70;;;6.20;;
50709;SDS011;37033;49.994;21.992;2023-01-15T09:24:57;11.40;;;5.40;;
50709;SDS011;37033;49.994;21.992;2023-01-15T09:27:47;8.20;;;4.80;;
50709;SDS011;37033;49.994;21.992;2023-01-15T09:30:37;6.60;;;4.50;;
50709;SDS011;37033;49.994;21.992;2023-01-15T09:33:27;8.50;;;5.00;;
50709;SDS011;37033;49.994;21.992;2023-01-15T09:36:18;14.60;;;5.80;;
50709;SDS011;37033;49.994;21.992;2023-01-15T09:39:10;7.10;;;5.10;;
50709;SDS011;37033;49.994;21.992;2023-01-15T09:42:04;9.10;;;4.90;;
50709;SDS011;37033;49.994;21.992;2023-01-15T09:45:14;10.10;;;5.20;;
50709;SDS011;37033;49.994;21.992;2023-01-15T09:48:10;9.30;;;4.70;;
50709;SDS011;37033;49.994;21.992;2023-01-15T09:51:15;9.50;;;5.50;;
50709;SDS011;37033;49.994;21.992;2023-01-15T09:54:13;9.70;;;5.80;;
50709;SDS011;37033;49.994;21.992;2023-01-15T09:57:10;10.80;;;6.40;;
50709;SDS011;37033;49.994;21.992;2023-01-15T10:00:03;9.00;;;5.00;;
50709;SDS011;37033;49.994;21.992;2023-01-15T10:03:00;9.30;;;5.00;;
50709;SDS011;37033;49.994;21.992;2023-01-15T10:05:57;8.10;;;4.30;;
50709;SDS011;37033;49.994;21.992;2023-01-15T10:08:58;6.80;;;3.90;;
50709;SDS011;37033;49.994;21.992;2023-01-15T10:11:55;8.20;;;4.90;;
50709;SDS011;37033;49.994;21.992;2023-01-15T10:15:14;7.10;;;4.30;;
50709;SDS011;37033;49.994;21.992;2023-01-15T10:18:11;7.80;;;3.60;;
50709;SDS011;37033;49.994;21.992;2023-01-15T10:21:07;7.10;;;4.10;;
50709;SDS011;37033;49.994;21.992;2023-01-15T10:24:05;8.60;;;4.60;;
50709;SDS011;37033;49.994;21.992;2023-01-15T10:27:01;11.40;;;5.00;;
50709;SDS011;37033;49.994;21.992;2023-01-15T10:30:02;7.40;;;4.40;;
50709;SDS011;37033;49.994;21.992;2023-01-15T10:33:01;8.10;;;4.50;;
50709;SDS011;37033;49.994;21.992;2023-01-15T10:36:03;11.30;;;6.00;;
50709;SDS011;37033;49.994;21.992;2023-01-15T10:39:00;8.00;;;4.30;;
50709;SDS011;37033;49.994;21.992;2023-01-15T10:42:04;8.60;;;3.90;;
50709;SDS011;37033;49.994;21.992;2023-01-15T10:45:08;7.50;;;4.00;;
50709;SDS011;37033;49.994;21.992;2023-01-15T10:48:04;7.20;;;3.70;;
50709;SDS011;37033;49.994;21.992;2023-01-15T10:51:02;6.80;;;4.40;;
50709;SDS011;37033;49.994;21.992;2023-01-15T10:54:02;8.70;;;3.80;;
50709;SDS011;37033;49.994;21.992;2023-01-15T10:56:59;6.80;;;4.30;;
50709;SDS011;37033;49.994;21.992;2023-01-15T10:59:58;5.60;;;3.90;;
50709;SDS011;37033;49.994;21.992;2023-01-15T11:02:58;9.10;;;3.90;;
50709;SDS011;37033;49.994;21.992;2023-01-15T11:05:53;7.40;;;3.90;;
50709;SDS011;37033;49.994;21.992;2023-01-15T11:08:44;8.10;;;4.20;;
50709;SDS011;37033;49.994;21.992;2023-01-15T11:11:39;8.40;;;4.60;;
50709;SDS011;37033;49.994;21.992;2023-01-15T11:14:51;16.40;;;8.10;;
50709;SDS011;37033;49.994;21.992;2023-01-15T11:17:59;16.20;;;8.50;;
50709;SDS011;37033;49.994;21.992;2023-01-15T11:21:11;8.20;;;4.30;;
50709;SDS011;37033;49.994;21.992;2023-01-15T11:24:02;11.40;;;5.80;;
50709;SDS011;37033;49.994;21.992;2023-01-15T11:27:01;6.70;;;4.30;;
50709;SDS011;37033;49.994;21.992;2023-01-15T11:29:54;7.60;;;4.10;;
50709;SDS011;37033;49.994;21.992;2023-01-15T11:32:52;8.10;;;4.00;;
50709;SDS011;37033;49.994;21.992;2023-01-15T11:35:49;6.30;;;3.50;;
50709;SDS011;37033;49.994;21.992;2023-01-15T11:38:45;6.80;;;3.70;;
50709;SDS011;37033;49.994;21.992;2023-01-15T11:41:37;9.90;;;5.00;;
50709;SDS011;37033;49.994;21.992;2023-01-15T11:44:52;5.90;;;3.80;;
50709;SDS011;37033;49.994;21.992;2023-01-15T11:48:06;7.30;;;4.20;;
50709;SDS011;37033;49.994;21.992;2023-01-15T11:51:21;10.10;;;4.20;;
50709;SDS011;37033;49.994;21.992;2023-01-15T11:54:14;7.40;;;3.90;;
50709;SDS011;37033;49.994;21.992;2023-01-15T11:57:04;8.10;;;4.60;;
50709;SDS011;37033;49.994;21.992;2023-01-15T11:59:55;7.90;;;4.70;;
50709;SDS011;37033;49.994;21.992;2023-01-15T12:02:46;7.10;;;3.70;;
50709;SDS011;37033;49.994;21.992;2023-01-15T12:05:45;8.10;;;3.40;;
50709;SDS011;37033;49.994;21.992;2023-01-15T12:08:45;10.30;;;4.70;;
50709;SDS011;37033;49.994;21.992;2023-01-15T12:11:43;7.10;;;4.20;;
50709;SDS011;37033;49.994;21.992;2023-01-15T12:14:55;5.10;;;3.50;;
50709;SDS011;37033;49.994;21.992;2023-01-15T12:17:58;7.20;;;4.70;;
50709;SDS011;37033;49.994;21.992;2023-01-15T12:21:11;5.50;;;3.90;;
50709;SDS011;37033;49.994;21.992;2023-01-15T12:24:20;9.50;;;4.30;;
50709;SDS011;37033;49.994;21.992;2023-01-15T12:27:26;9.50;;;4.90;;
50709;SDS011;37033;49.994;21.992;2023-01-15T12:30:30;6.90;;;3.90;;
50709;SDS011;37033;49.994;21.992;2023-01-15T12:33:31;5.50;;;3.60;;
50709;SDS011;37033;49.994;21.992;2023-01-15T12:36:30;5.40;;;3.20;;
50709;SDS011;37033;49.994;21.992;2023-01-15T12:39:27;4.60;;;2.60;;
50709;SDS011;37033;49.994;21.992;2023-01-15T12:42:21;4.50;;;2.70;;
50709;SDS011;37033;49.994;21.992;2023-01-15T12:45:32;5.30;;;2.80;;
50709;SDS011;37033;49.994;21.992;2023-01-15T12:48:27;7.90;;;3.70;;
50709;SDS011;37033;49.994;21.992;2023-01-15T12:51:23;5.90;;;3.70;;
50709;SDS011;37033;49.994;21.992;2023-01-15T12:57:28;8.80;;;3.60;;
50709;SDS011;37033;49.994;21.992;2023-01-15T13:00:21;6.20;;;3.90;;
50709;SDS011;37033;49.994;21.992;2023-01-15T13:06:10;5.80;;;3.40;;
50709;SDS011;37033;49.994;21.992;2023-01-15T13:09:03;4.20;;;2.50;;
50709;SDS011;37033;49.994;21.992;2023-01-15T13:11:57;4.70;;;3.20;;
50709;SDS011;37033;49.994;21.992;2023-01-15T13:14:48;6.80;;;3.30;;
50709;SDS011;37033;49.994;21.992;2023-01-15T13:17:46;7.30;;;5.50;;
50709;SDS011;37033;49.994;21.992;2023-01-15T13:20:47;8.70;;;3.40;;
50709;SDS011;37033;49.994;21.992;2023-01-15T13:23:42;6.90;;;4.20;;
50709;SDS011;37033;49.994;21.992;2023-01-15T13:30:05;6.00;;;3.90;;
50709;SDS011;37033;49.994;21.992;2023-01-15T13:33:09;6.30;;;4.20;;
50709;SDS011;37033;49.994;21.992;2023-01-15T13:36:06;5.40;;;3.70;;
50709;SDS011;37033;49.994;21.992;2023-01-15T13:39:02;6.50;;;3.80;;
50709;SDS011;37033;49.994;21.992;2023-01-15T13:41:55;7.80;;;4.60;;
50709;SDS011;37033;49.994;21.992;2023-01-15T13:45:23;8.70;;;4.90;;
50709;SDS011;37033;49.994;21.992;2023-01-15T13:48:24;9.40;;;4.60;;
50709;SDS011;37033;49.994;21.992;2023-01-15T13:51:21;11.20;;;5.20;;
50709;SDS011;37033;49.994;21.992;2023-01-15T13:54:17;8.40;;;5.80;;
50709;SDS011;37033;49.994;21.992;2023-01-15T13:57:20;8.10;;;5.10;;
50709;SDS011;37033;49.994;21.992;2023-01-15T14:00:29;8.50;;;5.30;;
50709;SDS011;37033;49.994;21.992;2023-01-15T14:03:25;8.60;;;5.00;;
50709;SDS011;37033;49.994;21.992;2023-01-15T14:06:17;8.00;;;4.80;;
50709;SDS011;37033;49.994;21.992;2023-01-15T14:09:07;15.80;;;6.30;;
50709;SDS011;37033;49.994;21.992;2023-01-15T14:12:02;11.40;;;5.30;;
50709;SDS011;37033;49.994;21.992;2023-01-15T14:15:17;9.50;;;5.40;;
50709;SDS011;37033;49.994;21.992;2023-01-15T14:18:27;9.30;;;5.20;;
50709;SDS011;37033;49.994;21.992;2023-01-15T14:21:32;13.10;;;6.40;;
50709;SDS011;37033;49.994;21.992;2023-01-15T14:24:50;10.20;;;5.40;;
50709;SDS011;37033;49.994;21.992;2023-01-15T14:27:56;10.20;;;6.70;;
50709;SDS011;37033;49.994;21.992;2023-01-15T14:31:03;12.00;;;6.60;;
50709;SDS011;37033;49.994;21.992;2023-01-15T14:34:16;9.40;;;5.70;;
50709;SDS011;37033;49.994;21.992;2023-01-15T14:37:20;11.70;;;5.70;;
50709;SDS011;37033;49.994;21.992;2023-01-15T14:40:18;10.50;;;6.40;;
50709;SDS011;37033;49.994;21.992;2023-01-15T14:43:14;14.50;;;7.20;;
50709;SDS011;37033;49.994;21.992;2023-01-15T14:46:13;13.30;;;7.50;;
50709;SDS011;37033;49.994;21.992;2023-01-15T14:52:16;12.80;;;6.80;;
50709;SDS011;37033;49.994;21.992;2023-01-15T14:55:10;15.10;;;7.50;;
50709;SDS011;37033;49.994;21.992;2023-01-15T14:58:03;14.20;;;7.80;;
50709;SDS011;37033;49.994;21.992;2023-01-15T15:01:00;14.60;;;7.30;;
50709;SDS011;37033;49.994;21.992;2023-01-15T15:04:04;24.50;;;10.60;;
50709;SDS011;37033;49.994;21.992;2023-01-15T15:07:01;19.40;;;10.50;;
50709;SDS011;37033;49.994;21.992;2023-01-15T15:09:55;15.20;;;7.70;;
50709;SDS011;37033;49.994;21.992;2023-01-15T15:12:55;12.80;;;7.60;;
50709;SDS011;37033;49.994;21.992;2023-01-15T15:15:52;11.30;;;7.40;;
50709;SDS011;37033;49.994;21.992;2023-01-15T15:18:54;13.60;;;7.80;;
50709;SDS011;37033;49.994;21.992;2023-01-15T15:21:47;14.40;;;8.30;;
50709;SDS011;37033;49.994;21.992;2023-01-15T15:24:41;14.80;;;7.90;;
50709;SDS011;37033;49.994;21.992;2023-01-15T15:27:35;13.90;;;8.30;;
50709;SDS011;37033;49.994;21.992;2023-01-15T15:30:25;15.90;;;8.30;;
50709;SDS011;37033;49.994;21.992;2023-01-15T15:33:19;17.30;;;9.40;;
50709;SDS011;37033;49.994;21.992;2023-01-15T15:36:13;14.50;;;8.80;;
50709;SDS011;37033;49.994;21.992;2023-01-15T15:39:12;15.10;;;9.40;;
50709;SDS011;37033;49.994;21.992;2023-01-15T15:42:08;11.70;;;7.20;;
50709;SDS011;37033;49.994;21.992;2023-01-15T15:45:21;13.90;;;8.40;;
50709;SDS011;37033;49.994;21.992;2023-01-15T15:48:31;14.60;;;8.90;;
50709;SDS011;37033;49.994;21.992;2023-01-15T15:51:29;16.30;;;8.90;;
50709;SDS011;37033;49.994;21.992;2023-01-15T15:54:20;14.80;;;8.40;;
50709;SDS011;37033;49.994;21.992;2023-01-15T15:57:13;16.40;;;7.20;;
50709;SDS011;37033;49.994;21.992;2023-01-15T16:00:08;16.40;;;8.90;;
50709;SDS011;37033;49.994;21.992;2023-01-15T16:03:17;16.20;;;9.00;;
50709;SDS011;37033;49.994;21.992;2023-01-15T16:06:17;16.60;;;7.90;;
50709;SDS011;37033;49.994;21.992;2023-01-15T16:09:09;14.20;;;8.70;;
50709;SDS011;37033;49.994;21.992;2023-01-15T16:11:59;14.90;;;8.20;;
50709;SDS011;37033;49.994;21.992;2023-01-15T16:14:53;14.80;;;8.30;;
50709;SDS011;37033;49.994;21.992;2023-01-15T16:17:44;14.80;;;7.80;;
50709;SDS011;37033;49.994;21.992;2023-01-15T16:20:36;12.20;;;8.10;;
50709;SDS011;37033;49.994;21.992;2023-01-15T16:23:28;13.40;;;8.10;;
50709;SDS011;37033;49.994;21.992;2023-01-15T16:26:19;11.40;;;8.10;;
50709;SDS011;37033;49.994;21.992;2023-01-15T16:29:16;10.70;;;6.40;;
50709;SDS011;37033;49.994;21.992;2023-01-15T16:32:17;14.10;;;8.40;;
50709;SDS011;37033;49.994;21.992;2023-01-15T16:35:14;16.40;;;9.30;;
50709;SDS011;37033;49.994;21.992;2023-01-15T16:38:13;13.40;;;7.80;;
50709;SDS011;37033;49.994;21.992;2023-01-15T16:41:12;11.10;;;6.90;;
50709;SDS011;37033;49.994;21.992;2023-01-15T16:44:05;15.00;;;7.70;;
50709;SDS011;37033;49.994;21.992;2023-01-15T16:47:16;16.40;;;10.10;;
50709;SDS011;37033;49.994;21.992;2023-01-15T16:50:25;17.80;;;9.00;;
50709;SDS011;37033;49.994;21.992;2023-01-15T16:53:29;10.80;;;7.70;;
50709;SDS011;37033;49.994;21.992;2023-01-15T16:59:59;13.30;;;7.80;;
50709;SDS011;37033;49.994;21.992;2023-01-15T17:02:53;15.00;;;8.60;;
50709;SDS011;37033;49.994;21.992;2023-01-15T17:05:44;16.20;;;9.70;;
50709;SDS011;37033;49.994;21.992;2023-01-15T17:08:35;14.40;;;9.10;;
50709;SDS011;37033;49.994;21.992;2023-01-15T17:11:27;12.10;;;8.60;;
50709;SDS011;37033;49.994;21.992;2023-01-15T17:14:20;15.20;;;9.10;;
50709;SDS011;37033;49.994;21.992;2023-01-15T17:17:22;16.80;;;9.50;;
50709;SDS011;37033;49.994;21.992;2023-01-15T17:20:15;16.70;;;9.00;;
50709;SDS011;37033;49.994;21.992;2023-01-15T17:23:07;14.90;;;8.00;;
50709;SDS011;37033;49.994;21.992;2023-01-15T17:26:01;18.20;;;10.40;;
50709;SDS011;37033;49.994;21.992;2023-01-15T17:28:52;14.00;;;9.70;;
50709;SDS011;37033;49.994;21.992;2023-01-15T17:31:41;11.90;;;8.20;;